Nearby METAR Reports

 

KSJC - San Jose, California, USA
Distance from station: NE 9mi, 14km
Updated: 03/02/2024 2:53pm
Mostly cloudy
Mostly cloudy
 Wind from WSW
Wind: WSW 12 mph , 19 km/h, Gust: 22 mph , 35 km/h
Temperature: 54°F , 12°C
Dew Point: 37°F , 3°C
Humidity: 54%
Barometer: 1011.9 hPa
Clouds: Mostly cloudy
Visibility: 10 miles , 16 km
Cloud details: Few Clouds 4500 ft
Partly cloudy 9500 ft
Mostly cloudy 11000 ft
2024/03/02 20:53 KSJC 022053Z 24010G19KT 10SM FEW045 SCT095 BKN110 12/03 A2988 RMK AO2 RAB09E24 SLP118 P0000 60002 T01220028 58007
KNUQ - Moffett Nas/Mtn, California, USA
Distance from station: N 9mi, 14km
Updated: 03/02/2024 2:55pm
Mostly cloudy
Mostly cloudy
 Wind from varies
Wind: varies 7 mph , 11 km/h, Gust: 17 mph , 28 km/h
Temperature: 54°F , 12°C
Dew Point: 37°F , 3°C
Humidity: 54%
Barometer: 1011.9 hPa
Clouds: Mostly cloudy
Visibility: 10 miles , 16 km
Cloud details: Few Clouds 3500 ft
Few Clouds 9500 ft
Mostly cloudy 12000 ft
2024/03/02 20:55 KNUQ 022055Z AUTO VRB06G15KT 10SM FEW035 FEW095 BKN120 12/03 A2988 RMK AO2
 
KPAO - Palo Alto, California, USA
Distance from station: NNW 14mi, 23km
Updated: 03/02/2024 2:47pm
Mostly cloudy
Mostly cloudy
 Wind from SW
Wind: SW 17 mph , 28 km/h, Gust: 23 mph , 37 km/h
Temperature: 54°F , 12°C
Dew Point: 39°F , 4°C
Humidity: 58%
Barometer: 1011.9 hPa
Clouds: Mostly cloudy
Visibility: 10 miles , 16 km
Cloud details: Mostly cloudy 3000 ft
2024/03/02 20:47 KPAO 022047Z 23015G20KT 10SM BKN030 12/04 A2988
KRHV - San Jose/Reid, California, USA
Distance from station: ENE 12mi, 19km
Updated: 03/02/2024 2:47pm
Mostly cloudy
Mostly cloudy
 Wind from SSW
Wind: SSW 9 mph , 15 km/h
Temperature: 52°F , 11°C
Dew Point: 37°F , 3°C
Humidity: 58%
Barometer: 1012.5 hPa
Clouds: Mostly cloudy
Visibility: 8 miles , 13 km
Cloud details: Partly cloudy 2500 ft
Mostly cloudy 4000 ft
2024/03/02 20:47 KRHV 022047Z 21008KT 8SM SCT025 BKN040 11/03 A2990
 
KOAK - Oakland, California, USA
Distance from station: NNW 31mi, 50km
Updated: 03/02/2024 2:53pm
Overcast
Overcast
 Wind from SW
Wind: SW 13 mph , 20 km/h
Temperature: 54°F , 12°C
Dew Point: 39°F , 4°C
Humidity: 58%
Barometer: 1011.2 hPa
Clouds: Overcast
Visibility: 10 miles , 16 km
Cloud details: Partly cloudy 3300 ft
Mostly cloudy 4200 ft
Overcast 9000 ft
2024/03/02 20:53 KOAK 022053Z 22011KT 10SM SCT033 BKN042 OVC090 12/04 A2986 RMK AO2 SLP111 T01170044 58013
KSQL - San Carlos Airpo, California, USA
Distance from station: NW 21mi, 34km
Updated: 03/02/2024 2:50pm
Mostly cloudy
Mostly cloudy
 Wind from SW
Wind: SW 13 mph , 20 km/h, Gust: 22 mph , 35 km/h
Temperature: 55°F , 13°C
Dew Point: 37°F , 3°C
Humidity: 51%
Barometer: 1011.9 hPa
Clouds: Mostly cloudy
Visibility: 10 miles , 16 km
Cloud details: Partly cloudy 3000 ft
Mostly cloudy 5200 ft
2024/03/02 20:50 KSQL 022050Z 22011G19KT 10SM SCT030 BKN052 13/03 A2988
 
KSFO - San Francisco, California, USA
Distance from station: NW 30mi, 49km
Updated: 03/02/2024 2:56pm
Mostly cloudy
Mostly cloudy
 Wind from SSW
Wind: SSW 14 mph , 22 km/h
Temperature: 54°F , 12°C
Dew Point: 39°F , 4°C
Humidity: 58%
Barometer: 1010.8 hPa
Clouds: Mostly cloudy
Visibility: 10 miles , 16 km
Cloud details: Few Clouds 2400 ft
Mostly cloudy 3800 ft
Mostly cloudy 4800 ft
2024/03/02 20:56 KSFO 022056Z 20012KT 10SM FEW024 BKN038 BKN048 12/04 A2985 RMK AO2 SLP109 T01220044 58
KE16 - San Martin, California, USA
Distance from station: ESE 27mi, 43km
Updated: 03/02/2024 2:35pm
Mostly cloudy
Mostly cloudy
 Wind from WSW
Wind: WSW 5 mph , 7 km/h
Temperature: 52°F , 11°C
Dew Point: 39°F , 4°C
Humidity: 62%
Barometer: 1013.5 hPa
Clouds: Mostly cloudy
Visibility: 10 miles , 16 km
Cloud details: Mostly cloudy 3600 ft
2024/03/02 20:35 KE16 022035Z AUTO 25004KT 10SM BKN036 11/04 A2993 RMK AO2 PWINO PNO
 
KWVI - Watsonville, California, USA
Distance from station: SSE 27mi, 44km
Updated: 03/02/2024 2:53pm
Clear
Clear
 Wind from WSW
Wind: WSW 13 mph , 20 km/h, Gust: 20 mph , 31 km/h
Temperature: 54°F , 12°C
Dew Point: 45°F , 7°C
Humidity: 72%
Barometer: 1013.2 hPa
Clouds: Clear
Visibility: 10 miles , 16 km
2024/03/02 20:53 KWVI 022053Z AUTO 24011G17KT 10SM CLR 12/07 A2992 RMK AO2 SLP131 60000 T01170067 58006
KHAF - Half Moon Bay, California, USA
Distance from station: WNW 31mi, 50km
Updated: 03/02/2024 2:55pm
Few Clouds
Few Clouds
 Wind from S
Wind: S 10 mph , 17 km/h, Gust: 17 mph , 28 km/h
Temperature: 52°F , 11°C
Dew Point: 43°F , 6°C
Humidity: 72%
Barometer: 1011.5 hPa
Clouds: Few Clouds
Visibility: 7 miles , 11 km
Cloud details: Few Clouds 3000 ft
Few Clouds 8000 ft
2024/03/02 20:55 KHAF 022055Z AUTO 18009G15KT 160V220 7SM FEW030 FEW080 11/06 A2987 RMK AO2
 
KHWD - Hayward, California, USA
Distance from station: N 28mi, 44km
Updated: 03/02/2024 2:54pm
Overcast
Overcast
 Wind from SSW
Wind: SSW 9 mph , 15 km/h
Temperature: 55°F , 13°C
Dew Point: 39°F , 4°C
Humidity: 55%
Barometer: 1011.2 hPa
Clouds: Overcast
Visibility: 10 miles , 16 km
Cloud details: Partly cloudy 3900 ft
Mostly cloudy 4700 ft
Overcast 8000 ft
2024/03/02 20:54 KHWD 022054Z 21008KT 10SM SCT039 BKN047 OVC080 13/04 A2986 RMK AO2 RAB1958E08B36E53 PRESFR SLP120 P0000 60001 T01280044 58013
KLVK - Livermore, California, USA
Distance from station: NNE 31mi, 51km
Updated: 03/02/2024 2:53pm
Mostly cloudy
Mostly cloudy
 Wind from SW
Wind: SW 14 mph , 22 km/h, Gust: 25 mph , 41 km/h
Temperature: 52°F , 11°C
Dew Point: 39°F , 4°C
Humidity: 62%
Barometer: 1010.8 hPa
Clouds: Mostly cloudy
Visibility: 10 miles , 16 km
Cloud details: Few Clouds 9000 ft
Mostly cloudy 11000 ft
2024/03/02 20:53 KLVK 022053Z 23012G22KT 10SM FEW090 BKN110 11/04 A2985 RMK AO2 SLP107 60001 T01110044 58012